Time;durP1;ratioP1;P1;durP2;ratioP2;P2;SDS_P1;SDS_P2;PMS_P1;PMS_P2;Temp;Humidity;BMP_temperature;BMP_pressure;BME280_temperature;BME280_humidity;BME280_pressure;Samples;Min_cycle;Max_cycle;Signal;HPM_P1;HPM_P2
2021/04/06 00:01:46;;;;;;;18.77;1.50;;;3.20;99.90;;;;;;5115025;28;20187;-76
2021/04/06 00:04:19;;;;;;;6.90;1.83;;;3.30;99.90;;;;;;5115376;28;20582;-77
2021/04/06 00:06:49;;;;;;;12.30;1.70;;;3.40;99.90;;;;;;5108939;28;20679;-77
2021/04/06 00:09:22;;;;;;;5.17;1.53;;;3.40;99.90;;;;;;5110434;28;20239;-74
2021/04/06 00:11:50;;;;;;;10.43;1.67;;;3.40;99.90;;;;;;5116140;28;20162;-77
2021/04/06 00:14:17;;;;;;;13.77;2.23;;;3.50;99.90;;;;;;5114671;28;20242;-76
2021/04/06 00:16:45;;;;;;;14.23;2.20;;;3.60;99.90;;;;;;5114371;28;20174;-74
2021/04/06 00:19:19;;;;;;;12.30;1.87;;;3.70;99.90;;;;;;5114731;28;20268;-76
2021/04/06 00:21:50;;;;;;;9.83;1.93;;;3.70;99.90;;;;;;5114796;28;20157;-74
2021/04/06 00:24:17;;;;;;;9.07;1.57;;;3.70;99.90;;;;;;5109473;28;20174;-74
2021/04/06 00:26:52;;;;;;;8.70;2.00;;;3.70;99.90;;;;;;5113185;28;20173;-76
2021/04/06 00:29:20;;;;;;;8.93;1.80;;;3.70;99.90;;;;;;5114309;28;20639;-76
2021/04/06 00:31:48;;;;;;;11.10;1.77;;;3.70;99.90;;;;;;5115738;28;20175;-77
2021/04/06 00:34:16;;;;;;;10.90;2.27;;;3.60;99.90;;;;;;5114578;28;20268;-77
2021/04/06 00:36:43;;;;;;;6.77;2.27;;;3.60;99.90;;;;;;5113975;28;20169;-76
2021/04/06 00:39:11;;;;;;;8.03;1.63;;;3.50;99.90;;;;;;5115622;28;20165;-77
2021/04/06 00:41:38;;;;;;;10.00;2.37;;;3.50;99.90;;;;;;5114470;28;20556;-74
2021/04/06 00:44:13;;;;;;;9.73;2.20;;;3.40;99.90;;;;;;5115197;28;20248;-74
2021/04/06 00:46:44;;;;;;;10.60;2.33;;;3.50;99.90;;;;;;5113852;28;20260;-74
2021/04/06 00:49:13;;;;;;;10.47;1.53;;;3.50;99.90;;;;;;5114359;28;20177;-74
2021/04/06 00:51:40;;;;;;;7.43;1.90;;;3.60;99.90;;;;;;5113880;28;20209;-74
2021/04/06 00:54:13;;;;;;;12.70;2.00;;;3.70;99.90;;;;;;5114452;28;20177;-74
2021/04/06 00:56:41;;;;;;;8.13;1.70;;;3.70;99.90;;;;;;5113683;28;20184;-74
2021/04/06 00:59:13;;;;;;;12.23;1.90;;;3.70;99.90;;;;;;5113916;28;20242;-74
2021/04/06 01:01:43;;;;;;;11.90;1.70;;;3.70;99.90;;;;;;5114027;28;20218;-76
2021/04/06 01:04:14;;;;;;;9.07;1.60;;;3.80;99.90;;;;;;5113849;28;20173;-75
2021/04/06 01:06:58;;;;;;;8.97;1.67;;;3.80;99.90;;;;;;5114191;28;20165;-74
2021/04/06 01:09:46;;;;;;;6.33;1.60;;;4.00;99.90;;;;;;5115187;28;20170;-74
2021/04/06 01:12:17;;;;;;;7.00;1.53;;;4.20;99.90;;;;;;5114787;28;20236;-77
2021/04/06 01:14:45;;;;;;;15.10;1.63;;;4.10;99.90;;;;;;5114189;28;20228;-77
2021/04/06 01:17:20;;;;;;;10.30;2.43;;;4.00;99.90;;;;;;5112324;28;20530;-76
2021/04/06 01:19:45;;;;;;;10.00;1.83;;;4.10;99.90;;;;;;5114967;28;20616;-77
2021/04/06 01:22:16;;;;;;;12.37;2.33;;;4.20;99.90;;;;;;5113777;28;20181;-74
2021/04/06 01:24:42;;;;;;;10.00;1.90;;;4.20;99.90;;;;;;5114654;28;20635;-76
2021/04/06 01:27:12;;;;;;;7.23;1.83;;;4.10;99.90;;;;;;5112885;28;20169;-77
2021/04/06 01:29:38;;;;;;;9.47;1.80;;;4.00;99.90;;;;;;5114569;28;20165;-76
2021/04/06 01:32:04;;;;;;;10.97;2.17;;;3.80;99.90;;;;;;5113222;28;20631;-76
2021/04/06 01:34:30;;;;;;;8.07;2.67;;;3.70;99.90;;;;;;5114470;28;20180;-74
2021/04/06 01:36:56;;;;;;;10.13;2.97;;;3.70;99.90;;;;;;5112706;28;20200;-75
2021/04/06 01:39:28;;;;;;;28.07;4.27;;;3.70;99.90;;;;;;5114376;28;20521;-74
2021/04/06 01:42:01;;;;;;;15.33;4.40;;;3.70;99.90;;;;;;5114315;28;20165;-76
2021/04/06 01:44:27;;;;;;;18.03;3.73;;;3.60;99.90;;;;;;5114340;28;20158;-74
2021/04/06 01:46:54;;;;;;;18.83;3.57;;;3.60;99.90;;;;;;5112273;27;20253;-74
2021/04/06 01:49:21;;;;;;;23.90;4.63;;;3.60;99.90;;;;;;5092749;28;20178;-76
2021/04/06 01:51:48;;;;;;;15.20;2.80;;;3.60;99.90;;;;;;5126504;27;20166;-74
2021/04/06 01:54:15;;;;;;;24.63;4.10;;;3.70;99.90;;;;;;5092879;28;20176;-76
2021/04/06 01:56:54;;;;;;;27.03;3.87;;;3.70;99.90;;;;;;5109710;28;20225;-77
2021/04/06 01:59:28;;;;;;;17.83;3.67;;;3.80;99.90;;;;;;5113113;28;20544;-74
2021/04/06 02:01:56;;;;;;;17.20;3.47;;;3.90;99.90;;;;;;5112878;28;20187;-76
2021/04/06 02:04:24;;;;;;;14.23;3.17;;;3.80;99.90;;;;;;5114107;28;20181;-74
2021/04/06 02:06:52;;;;;;;19.20;3.70;;;3.60;99.90;;;;;;5113085;28;20180;-74
2021/04/06 02:09:20;;;;;;;12.43;2.03;;;3.60;99.90;;;;;;5113842;28;20165;-77
2021/04/06 02:11:46;;;;;;;10.20;2.40;;;3.70;99.90;;;;;;5114045;28;20606;-74
2021/04/06 02:14:15;;;;;;;10.67;2.63;;;3.70;99.90;;;;;;5113902;28;20256;-74
2021/04/06 02:16:44;;;;;;;13.57;2.87;;;3.70;99.90;;;;;;5112143;28;20170;-74
2021/04/06 02:19:20;;;;;;;12.50;3.30;;;3.70;99.90;;;;;;5112432;28;20194;-77
2021/04/06 02:21:54;;;;;;;23.77;3.17;;;3.70;99.90;;;;;;5113623;28;20160;-76
2021/04/06 02:24:40;;;;;;;13.40;2.73;;;3.70;99.90;;;;;;5112625;28;20223;-76
2021/04/06 02:27:24;;;;;;;19.40;3.20;;;3.70;99.90;;;;;;5113398;28;20180;-74
2021/04/06 02:29:53;;;;;;;17.93;2.53;;;3.70;99.90;;;;;;5113682;28;20162;-74
2021/04/06 02:32:24;;;;;;;17.57;2.87;;;3.70;99.90;;;;;;5112185;28;20266;-74
2021/04/06 02:34:52;;;;;;;13.33;2.50;;;3.80;99.90;;;;;;5112462;28;20264;-74
2021/04/06 02:37:26;;;;;;;10.57;2.50;;;4.00;99.90;;;;;;5111694;28;20177;-74
2021/04/06 02:39:54;;;;;;;13.33;2.70;;;4.00;99.90;;;;;;5113639;28;20248;-74
2021/04/06 02:42:27;;;;;;;18.67;2.90;;;4.00;99.90;;;;;;5112162;28;20172;-73
2021/04/06 02:45:12;;;;;;;13.30;2.40;;;3.90;99.90;;;;;;5112630;28;20169;-77
2021/04/06 02:47:49;;;;;;;13.27;2.37;;;3.50;99.90;;;;;;5110940;28;20229;-77
2021/04/06 02:50:23;;;;;;;15.33;2.10;;;3.40;99.90;;;;;;5113567;28;20189;-76
2021/04/06 02:52:49;;;;;;;11.87;2.20;;;3.40;99.90;;;;;;5113378;28;20291;-77
2021/04/06 02:55:15;;;;;;;13.57;1.90;;;3.40;99.90;;;;;;5112989;28;20603;-77
2021/04/06 02:57:42;;;;;;;18.27;2.97;;;3.20;99.90;;;;;;5113534;28;20224;-76
2021/04/06 03:00:09;;;;;;;12.77;1.40;;;3.10;99.90;;;;;;5112439;28;20621;-76
2021/04/06 03:02:41;;;;;;;18.43;2.03;;;3.20;99.90;;;;;;5102124;28;20242;-76
2021/04/06 03:05:08;;;;;;;12.20;1.73;;;3.30;99.90;;;;;;5097762;28;20162;-77
2021/04/06 03:07:45;;;;;;;11.53;2.07;;;3.30;99.90;;;;;;5115293;28;20173;-74
2021/04/06 03:10:18;;;;;;;12.73;2.10;;;3.30;99.90;;;;;;5115569;28;20235;-74
2021/04/06 03:12:47;;;;;;;13.33;2.30;;;3.30;99.90;;;;;;5114462;28;20189;-74
2021/04/06 03:15:14;;;;;;;11.63;2.27;;;3.40;99.90;;;;;;5114097;28;20177;-74
2021/04/06 03:17:49;;;;;;;20.23;2.47;;;3.40;99.90;;;;;;5112731;28;20170;-75
2021/04/06 03:20:15;;;;;;;12.50;2.67;;;3.40;99.90;;;;;;5113424;28;20176;-75
2021/04/06 03:22:42;;;;;;;5.47;1.80;;;3.30;99.90;;;;;;5107253;28;20272;-75
2021/04/06 03:25:09;;;;;;;9.50;1.47;;;3.40;99.90;;;;;;5100314;28;20169;-75
2021/04/06 03:27:35;;;;;;;8.00;1.83;;;3.40;99.90;;;;;;5096314;28;20174;-74
2021/04/06 03:30:02;;;;;;;13.03;2.37;;;3.50;99.90;;;;;;5100598;28;20249;-75
2021/04/06 03:32:28;;;;;;;16.63;2.40;;;3.40;99.90;;;;;;5098379;28;20205;-75
2021/04/06 03:34:54;;;;;;;14.27;1.83;;;3.40;99.90;;;;;;5097130;28;20185;-75
2021/04/06 03:37:21;;;;;;;22.10;2.63;;;3.40;99.90;;;;;;5106683;28;20189;-75
2021/04/06 03:39:47;;;;;;;14.60;2.80;;;3.30;99.90;;;;;;5117023;28;20244;-75
2021/04/06 03:42:24;;;;;;;12.03;2.00;;;3.30;99.90;;;;;;5115496;28;20176;-75
2021/04/06 03:44:50;;;;;;;22.50;2.17;;;3.30;99.90;;;;;;5114513;28;20172;-75
2021/04/06 03:47:16;;;;;;;13.00;2.90;;;3.20;99.90;;;;;;5094485;28;20178;-76
2021/04/06 03:49:48;;;;;;;16.33;2.77;;;3.20;99.90;;;;;;5096473;28;20166;-75
2021/04/06 03:52:14;;;;;;;19.37;3.00;;;3.10;99.90;;;;;;5111847;28;20679;-75
2021/04/06 03:54:48;;;;;;;17.77;2.67;;;3.20;99.90;;;;;;5096233;28;20216;-75
2021/04/06 03:58:08;;;;;;;23.03;3.07;;;3.20;99.90;;;;;;5104467;28;20165;-75
2021/04/06 04:00:25;;;;;;;9.80;3.40;;;3.10;99.90;;;;;;5114973;28;20181;-75
2021/04/06 04:02:50;;;;;;;7.50;2.60;;;3.20;99.90;;;;;;5114954;28;20182;-76
2021/04/06 04:05:16;;;;;;;8.43;2.50;;;3.30;99.90;;;;;;5114205;28;20177;-75
2021/04/06 04:07:42;;;;;;;22.00;3.90;;;3.40;99.90;;;;;;5114203;28;20169;-76
2021/04/06 04:10:08;;;;;;;16.53;2.70;;;3.50;99.90;;;;;;5114850;28;20216;-75
2021/04/06 04:12:35;;;;;;;24.47;3.13;;;3.60;99.90;;;;;;5115868;28;20201;-75
2021/04/06 04:15:00;;;;;;;22.40;2.67;;;3.50;99.90;;;;;;5116278;28;20530;-75
2021/04/06 04:17:26;;;;;;;20.33;2.53;;;3.50;99.90;;;;;;5115694;28;20644;-75
2021/04/06 04:19:53;;;;;;;18.87;2.50;;;3.50;99.90;;;;;;5114817;28;20180;-75
2021/04/06 04:22:19;;;;;;;11.37;2.40;;;3.50;99.90;;;;;;5114607;28;20177;-75
2021/04/06 04:24:44;;;;;;;30.67;3.23;;;3.50;99.90;;;;;;5115760;28;20219;-75
2021/04/06 04:27:10;;;;;;;18.27;2.80;;;3.60;99.90;;;;;;5113936;28;20645;-75
2021/04/06 04:29:35;;;;;;;12.67;2.60;;;3.60;99.90;;;;;;5115926;28;20172;-75
2021/04/06 04:32:02;;;;;;;11.67;2.47;;;3.60;99.90;;;;;;5114387;28;20656;-75
2021/04/06 04:34:27;;;;;;;19.83;2.30;;;3.70;99.90;;;;;;5115219;28;20176;-75
2021/04/06 04:36:53;;;;;;;14.30;2.83;;;3.60;99.90;;;;;;5114056;28;20169;-75
2021/04/06 04:39:19;;;;;;;12.37;2.27;;;3.50;99.90;;;;;;5114174;28;20181;-77
2021/04/06 04:41:45;;;;;;;11.87;2.17;;;3.50;99.90;;;;;;5115706;28;20161;-75
2021/04/06 04:44:10;;;;;;;8.77;2.40;;;3.60;99.90;;;;;;5115957;28;20174;-75
2021/04/06 04:46:36;;;;;;;12.33;2.40;;;3.50;99.90;;;;;;5114845;28;20542;-75
2021/04/06 04:49:01;;;;;;;12.10;2.07;;;3.50;99.90;;;;;;5114114;28;20177;-75
2021/04/06 04:51:27;;;;;;;16.27;2.27;;;3.50;99.90;;;;;;5115668;28;20690;-75
2021/04/06 04:53:53;;;;;;;11.10;1.63;;;3.50;99.90;;;;;;5114962;28;20208;-76
2021/04/06 04:56:18;;;;;;;26.67;2.87;;;3.50;99.90;;;;;;5115241;28;20184;-75
2021/04/06 04:58:44;;;;;;;16.13;2.10;;;3.50;99.90;;;;;;5115151;28;20271;-75
2021/04/06 05:01:11;;;;;;;14.27;2.70;;;3.60;99.90;;;;;;5115086;28;20253;-75
2021/04/06 05:03:37;;;;;;;18.27;3.37;;;3.70;99.90;;;;;;5115028;28;20176;-75
2021/04/06 05:06:03;;;;;;;15.10;2.60;;;3.70;99.90;;;;;;5115210;27;20169;-76
2021/04/06 05:08:28;;;;;;;14.37;2.27;;;3.70;99.90;;;;;;5113447;27;20174;-75
2021/04/06 05:10:54;;;;;;;5.53;1.53;;;3.70;99.90;;;;;;5114066;28;20177;-75
2021/04/06 05:13:20;;;;;;;10.73;1.40;;;3.60;99.90;;;;;;5113724;28;20622;-76
2021/04/06 05:15:45;;;;;;;13.67;1.60;;;3.70;99.90;;;;;;5114140;28;20178;-75
2021/04/06 05:18:11;;;;;;;13.23;1.80;;;3.60;99.90;;;;;;5113046;28;20184;-75
2021/04/06 05:20:36;;;;;;;7.90;1.70;;;3.50;99.90;;;;;;5113614;28;20195;-75
2021/04/06 05:23:02;;;;;;;7.63;1.93;;;3.50;99.90;;;;;;5113360;28;20231;-75
2021/04/06 05:25:28;;;;;;;10.67;1.87;;;3.50;99.90;;;;;;5114705;28;20172;-75
2021/04/06 05:27:54;;;;;;;7.53;1.87;;;3.50;99.90;;;;;;5112969;28;20173;-75
2021/04/06 05:30:20;;;;;;;9.60;1.40;;;3.60;99.90;;;;;;5113468;28;20194;-75
2021/04/06 05:32:45;;;;;;;12.60;1.60;;;3.60;99.90;;;;;;5113208;28;20300;-75
2021/04/06 05:35:11;;;;;;;10.23;1.77;;;3.50;99.90;;;;;;5111907;28;20268;-76
2021/04/06 05:37:37;;;;;;;6.97;1.60;;;3.30;99.90;;;;;;5113917;28;20195;-75
2021/04/06 05:40:03;;;;;;;8.90;1.33;;;3.20;99.90;;;;;;5114606;28;20165;-74
2021/04/06 05:42:29;;;;;;;6.33;1.70;;;3.00;99.90;;;;;;5112043;28;20177;-75
2021/04/06 05:44:55;;;;;;;10.30;1.80;;;3.00;99.90;;;;;;5104182;28;20178;-75
2021/04/06 05:47:24;;;;;;;8.30;1.40;;;3.20;99.90;;;;;;5095659;28;20176;-75
2021/04/06 05:49:49;;;;;;;8.40;1.03;;;3.50;99.90;;;;;;5114134;28;20165;-75
2021/04/06 05:52:15;;;;;;;6.00;1.40;;;3.70;99.90;;;;;;5112758;28;20208;-75
2021/04/06 05:54:42;;;;;;;7.43;1.20;;;4.00;99.90;;;;;;5112828;28;20264;-75
2021/04/06 05:57:07;;;;;;;3.33;1.03;;;4.30;99.90;;;;;;5113760;28;20173;-76
2021/04/06 05:59:33;;;;;;;13.03;1.23;;;4.50;99.90;;;;;;5114228;28;20181;-76
2021/04/06 06:01:59;;;;;;;5.67;1.10;;;4.60;99.90;;;;;;5114199;28;20180;-75
2021/04/06 06:04:24;;;;;;;2.57;1.20;;;4.60;99.90;;;;;;5111826;28;20573;-75
2021/04/06 06:06:50;;;;;;;5.70;1.27;;;4.30;99.90;;;;;;5097657;28;20174;-75
2021/04/06 06:09:32;;;;;;;5.33;1.17;;;4.30;99.90;;;;;;5114071;28;20170;-75
2021/04/06 06:12:05;;;;;;;4.53;1.33;;;4.20;99.90;;;;;;5112596;28;20504;-75
2021/04/06 06:14:34;;;;;;;3.57;1.00;;;4.20;99.90;;;;;;5114152;28;20184;-75
2021/04/06 06:17:12;;;;;;;6.63;1.20;;;3.80;99.90;;;;;;5113393;28;20161;-75
2021/04/06 06:19:38;;;;;;;9.33;1.20;;;3.50;99.90;;;;;;5112559;28;20359;-76
2021/04/06 06:22:20;;;;;;;4.60;1.20;;;3.40;99.90;;;;;;5113731;28;20165;-75
2021/04/06 06:24:48;;;;;;;4.60;1.07;;;3.40;99.90;;;;;;5113911;28;20162;-76
2021/04/06 06:27:34;;;;;;;8.30;1.20;;;3.40;99.90;;;;;;5111916;28;20165;-76
2021/04/06 06:30:33;;;;;;;5.30;1.20;;;3.50;99.90;;;;;;5113625;28;20165;-76
2021/04/06 06:33:17;;;;;;;8.37;1.33;;;3.80;99.90;;;;;;5111729;28;20212;-75
2021/04/06 06:35:48;;;;;;;8.43;1.60;;;4.20;99.90;;;;;;5112672;28;20207;-75
2021/04/06 06:38:15;;;;;;;6.47;1.60;;;4.40;99.90;;;;;;5113234;28;20262;-76
2021/04/06 06:40:42;;;;;;;5.77;1.00;;;4.70;99.90;;;;;;5112412;28;20649;-75
2021/04/06 06:43:12;;;;;;;2.90;1.10;;;5.00;99.90;;;;;;5104079;28;20178;-75
2021/04/06 06:45:37;;;;;;;9.60;1.40;;;5.40;99.90;;;;;;5093239;28;20161;-75
2021/04/06 06:48:03;;;;;;;4.97;1.73;;;5.90;99.90;;;;;;5109093;28;20182;-75
2021/04/06 06:50:29;;;;;;;5.03;1.20;;;6.10;99.90;;;;;;5113274;28;20636;-74
2021/04/06 06:52:56;;;;;;;3.97;1.40;;;6.30;99.90;;;;;;5112344;28;20201;-75
2021/04/06 06:55:24;;;;;;;7.77;1.70;;;6.50;99.90;;;;;;5115588;28;20177;-75
2021/04/06 06:58:05;;;;;;;6.37;1.43;;;6.30;99.90;;;;;;5117099;28;20177;-75
2021/04/06 07:00:31;;;;;;;5.20;1.30;;;6.50;99.90;;;;;;5117441;28;20231;-74
2021/04/06 07:02:57;;;;;;;7.63;1.40;;;6.60;99.90;;;;;;5116234;28;20227;-76
2021/04/06 07:05:23;;;;;;;10.10;2.10;;;6.60;99.90;;;;;;5104067;28;20174;-76
2021/04/06 07:07:56;;;;;;;3.83;1.50;;;6.50;99.90;;;;;;5111009;28;20177;-76
2021/04/06 07:10:28;;;;;;;5.53;2.08;;;6.30;99.90;;;;;;5115383;28;20423;-76
2021/04/06 07:13:03;;;;;;;7.47;1.80;;;5.90;99.90;;;;;;5110820;28;20193;-75
2021/04/06 07:15:30;;;;;;;9.37;2.00;;;5.60;99.90;;;;;;5097101;28;20185;-75
2021/04/06 07:18:11;;;;;;;4.80;1.70;;;5.40;99.90;;;;;;5108778;28;20184;-75
2021/04/06 07:20:40;;;;;;;6.20;1.73;;;5.00;99.90;;;;;;5109405;28;20626;-75
2021/04/06 07:23:09;;;;;;;2.97;1.27;;;4.80;99.90;;;;;;5116692;28;20527;-75
2021/04/06 07:25:35;;;;;;;3.00;1.53;;;4.50;99.90;;;;;;5116503;28;20252;-76
2021/04/06 07:28:02;;;;;;;1.37;1.17;;;4.00;99.90;;;;;;5115260;28;20226;-76
2021/04/06 07:30:28;;;;;;;5.37;1.80;;;3.70;99.90;;;;;;5115856;28;20165;-78
2021/04/06 07:32:55;;;;;;;2.67;1.17;;;3.60;99.90;;;;;;5116452;28;20201;-77
2021/04/06 07:35:21;;;;;;;7.13;1.70;;;3.60;99.90;;;;;;5117170;28;20231;-77
2021/04/06 07:37:47;;;;;;;6.83;1.90;;;3.80;99.90;;;;;;5115683;28;20656;-77
2021/04/06 07:40:16;;;;;;;4.27;1.33;;;4.10;99.90;;;;;;5115643;28;20532;-77
2021/04/06 07:42:44;;;;;;;13.23;2.13;;;4.40;99.90;;;;;;5116348;28;20169;-76
2021/04/06 07:45:30;;;;;;;4.93;2.10;;;4.90;99.90;;;;;;5116790;28;20172;-75
2021/04/06 07:47:56;;;;;;;4.63;1.60;;;6.30;99.90;;;;;;5116643;28;20173;-76
2021/04/06 07:50:43;;;;;;;2.93;1.60;;;6.80;99.90;;;;;;5115901;28;20205;-76
2021/04/06 07:53:29;;;;;;;2.47;1.30;;;6.70;99.90;;;;;;5116282;28;20189;-76
2021/04/06 07:55:59;;;;;;;8.07;1.70;;;6.30;99.90;;;;;;5115222;28;20180;-76
2021/04/06 07:58:47;;;;;;;3.63;1.40;;;5.60;99.90;;;;;;5116132;28;20188;-76
2021/04/06 08:01:25;;;;;;;2.63;1.13;;;4.80;99.90;;;;;;5115260;28;20176;-76
2021/04/06 08:03:54;;;;;;;2.47;1.33;;;4.40;99.90;;;;;;5116760;28;20177;-76
2021/04/06 08:06:25;;;;;;;2.63;1.50;;;4.30;99.90;;;;;;5114570;28;20169;-75
2021/04/06 08:08:51;;;;;;;3.40;1.40;;;4.30;99.90;;;;;;5116605;28;20196;-77
2021/04/06 08:11:18;;;;;;;4.60;1.40;;;4.50;99.90;;;;;;5116058;28;20175;-76
2021/04/06 08:13:45;;;;;;;4.53;1.37;;;4.70;99.90;;;;;;5114879;28;20203;-76
2021/04/06 08:16:14;;;;;;;5.57;1.70;;;5.30;99.90;;;;;;5114171;28;20177;-78
2021/04/06 08:19:05;;;;;;;5.70;1.50;;;6.50;99.90;;;;;;5119152;27;20633;-78
2021/04/06 08:21:31;;;;;;;2.47;1.37;;;7.40;99.90;;;;;;5116413;27;20162;-77
2021/04/06 08:23:57;;;;;;;9.70;1.33;;;9.10;99.90;;;;;;5112274;28;20547;-76
2021/04/06 08:26:30;;;;;;;3.63;1.33;;;12.00;99.90;;;;;;5114118;28;20169;-77
2021/04/06 08:29:16;;;;;;;2.85;0.95;;;14.00;99.90;;;;;;5115544;28;20173;-77
2021/04/06 08:31:42;;;;;;;7.95;1.80;;;13.30;99.90;;;;;;5115324;28;20433;-76
2021/04/06 08:34:28;;;;;;;5.43;1.30;;;13.00;99.90;;;;;;5114522;28;20629;-78
2021/04/06 08:37:08;;;;;;;5.18;1.50;;;12.10;99.90;;;;;;5114014;28;20205;-78
2021/04/06 08:39:35;;;;;;;4.85;1.50;;;11.80;99.90;;;;;;5112987;28;20169;-78
2021/04/06 08:42:03;;;;;;;6.75;1.85;;;11.00;99.90;;;;;;5114351;28;20223;-77
2021/04/06 08:44:29;;;;;;;4.10;1.63;;;9.90;99.90;;;;;;5115648;28;20162;-76
2021/04/06 08:46:55;;;;;;;2.73;1.40;;;8.10;99.90;;;;;;5114286;28;20169;-76
2021/04/06 08:49:25;;;;;;;5.17;1.60;;;7.10;99.90;;;;;;5096070;28;20224;-77
2021/04/06 08:51:55;;;;;;;4.97;1.50;;;6.10;99.90;;;;;;5093866;28;20166;-76
2021/04/06 08:54:23;;;;;;;5.60;1.50;;;5.70;99.90;;;;;;5093795;28;20174;-76
2021/04/06 08:56:54;;;;;;;4.37;1.40;;;5.70;99.90;;;;;;5093739;28;20166;-76
2021/04/06 08:59:22;;;;;;;3.40;1.67;;;5.60;99.90;;;;;;5093743;28;20168;-76
2021/04/06 09:01:54;;;;;;;4.30;1.20;;;6.00;99.90;;;;;;5094559;28;20273;-75
2021/04/06 09:04:26;;;;;;;1.60;0.87;;;7.20;99.90;;;;;;5093765;28;20265;-76
2021/04/06 09:06:52;;;;;;;2.67;1.20;;;10.10;99.90;;;;;;5094809;28;20173;-76
2021/04/06 09:09:20;;;;;;;3.40;1.23;;;12.70;99.90;;;;;;5094995;28;20174;-76
2021/04/06 09:11:47;;;;;;;6.45;1.33;;;15.90;99.90;;;;;;5094825;28;20204;-75
2021/04/06 09:14:14;;;;;;;4.78;1.30;;;18.20;99.90;;;;;;5094873;28;20208;-76
2021/04/06 09:16:40;;;;;;;8.20;1.33;;;18.80;99.90;;;;;;5099246;28;20645;-78
2021/04/06 09:19:10;;;;;;;3.97;1.20;;;21.20;99.90;;;;;;5110390;28;20166;-76
2021/04/06 09:21:37;;;;;;;3.95;1.58;;;22.30;95.60;;;;;;5111716;28;20166;-75
2021/04/06 09:24:06;;;;;;;2.67;1.52;;;22.10;95.00;;;;;;5103504;28;20601;-76
2021/04/06 09:26:32;;;;;;;7.65;2.40;;;22.40;95.30;;;;;;5093293;28;20181;-76
2021/04/06 09:29:08;;;;;;;3.55;1.45;;;23.60;92.70;;;;;;5094375;28;20166;-75
2021/04/06 09:31:39;;;;;;;4.88;1.65;;;23.70;91.20;;;;;;5093084;28;20170;-76
2021/04/06 09:34:10;;;;;;;3.83;1.90;;;25.30;90.10;;;;;;5094337;28;20202;-76
2021/04/06 09:36:38;;;;;;;6.47;2.05;;;25.20;84.60;;;;;;5092590;28;20178;-76
2021/04/06 09:39:05;;;;;;;6.22;1.90;;;25.70;83.30;;;;;;5094049;28;20518;-76
2021/04/06 09:41:35;;;;;;;5.05;1.60;;;24.90;85.80;;;;;;5092649;28;20165;-76
2021/04/06 09:44:05;;;;;;;5.65;1.70;;;25.00;86.70;;;;;;5094165;28;20174;-76
2021/04/06 09:46:36;;;;;;;4.53;1.73;;;24.50;86.10;;;;;;5094253;28;20245;-76
2021/04/06 09:49:04;;;;;;;6.63;2.22;;;23.50;86.50;;;;;;5092447;28;20177;-76
2021/04/06 09:51:30;;;;;;;8.13;1.92;;;23.10;88.00;;;;;;5093958;28;20158;-76
2021/04/06 09:53:56;;;;;;;5.00;1.83;;;22.70;88.30;;;;;;5093793;28;20242;-75
2021/04/06 09:56:22;;;;;;;6.03;2.15;;;20.80;86.70;;;;;;5092666;28;20642;-75
2021/04/06 09:58:48;;;;;;;3.53;1.73;;;21.50;90.20;;;;;;5093807;28;20521;-75
2021/04/06 10:01:26;;;;;;;2.67;1.60;;;22.80;87.90;;;;;;5092670;28;20724;-76
2021/04/06 10:03:57;;;;;;;4.22;1.77;;;22.00;87.80;;;;;;5093624;28;20172;-75
2021/04/06 10:06:40;;;;;;;10.38;1.65;;;20.90;87.20;;;;;;5110262;28;20181;-75
2021/04/06 10:09:32;;;;;;;4.78;1.75;;;19.90;88.90;;;;;;5114160;28;20638;-75
2021/04/06 10:11:59;;;;;;;4.25;1.30;;;20.30;88.20;;;;;;5112770;28;20172;-75
2021/04/06 10:14:24;;;;;;;3.25;1.38;;;21.90;88.00;;;;;;5113929;28;20222;-75
2021/04/06 10:17:03;;;;;;;4.30;1.27;;;21.40;86.50;;;;;;5112501;28;20621;-75
2021/04/06 10:19:30;;;;;;;6.40;1.23;;;20.60;89.70;;;;;;5112636;28;20176;-75
2021/04/06 10:22:01;;;;;;;6.00;1.65;;;20.80;90.40;;;;;;5112764;28;20165;-75
2021/04/06 10:24:29;;;;;;;2.70;1.38;;;19.50;89.70;;;;;;5113819;28;20243;-74
2021/04/06 10:27:17;;;;;;;4.95;1.10;;;16.20;92.20;;;;;;5114031;28;20169;-75
2021/04/06 10:29:44;;;;;;;2.42;1.10;;;13.70;94.30;;;;;;5112584;28;20176;-75
2021/04/06 10:32:40;;;;;;;3.20;1.02;;;12.00;94.90;;;;;;5112358;28;20185;-75
2021/04/06 10:35:11;;;;;;;15.20;1.55;;;11.00;95.30;;;;;;5107959;28;20196;-75
2021/04/06 10:37:44;;;;;;;4.05;1.15;;;10.10;97.90;;;;;;5112358;28;20173;-75
2021/04/06 10:40:38;;;;;;;7.43;1.55;;;9.50;99.90;;;;;;5112505;28;20264;-74
2021/04/06 10:43:11;;;;;;;5.03;1.42;;;8.80;99.90;;;;;;5112454;28;20200;-75
2021/04/06 10:45:44;;;;;;;7.47;1.83;;;8.30;99.90;;;;;;5113449;28;20306;-75
2021/04/06 10:48:13;;;;;;;3.88;1.70;;;8.10;99.90;;;;;;5113355;28;20217;-74
2021/04/06 10:50:43;;;;;;;6.45;1.38;;;8.30;99.90;;;;;;5113736;28;20176;-75
2021/04/06 10:53:38;;;;;;;9.75;2.08;;;9.60;99.90;;;;;;5112377;28;20218;-75
2021/04/06 10:56:03;;;;;;;5.05;1.45;;;10.50;99.90;;;;;;5108924;28;20209;-75
2021/04/06 10:58:54;;;;;;;3.78;1.67;;;13.60;99.90;;;;;;5112997;28;20257;-76
2021/04/06 11:01:36;;;;;;;3.65;1.55;;;17.60;99.90;;;;;;5097082;28;20189;-75
2021/04/06 11:04:15;;;;;;;7.40;1.70;;;18.00;98.80;;;;;;5112301;28;20187;-74
2021/04/06 11:06:45;;;;;;;4.50;1.48;;;18.60;95.60;;;;;;5095363;28;20617;-75
2021/04/06 11:09:21;;;;;;;6.80;1.80;;;18.10;97.80;;;;;;5112439;28;20286;-75
2021/04/06 11:11:48;;;;;;;6.40;1.90;;;18.00;96.40;;;;;;5112103;28;20169;-75
2021/04/06 11:14:17;;;;;;;8.43;2.20;;;18.50;97.20;;;;;;5111885;28;20205;-75
2021/04/06 11:16:43;;;;;;;3.97;1.67;;;19.50;96.20;;;;;;5111743;28;20260;-76
2021/04/06 11:19:26;;;;;;;4.75;1.63;;;21.30;94.00;;;;;;5113284;28;20153;-75
2021/04/06 11:21:55;;;;;;;2.95;1.88;;;24.10;87.80;;;;;;5113430;28;20161;-75
2021/04/06 11:24:24;;;;;;;5.65;1.90;;;24.20;82.60;;;;;;5113622;28;20192;-76
2021/04/06 11:26:50;;;;;;;5.50;1.80;;;24.30;85.10;;;;;;5112851;28;20172;-75
2021/04/06 11:29:19;;;;;;;3.95;1.63;;;21.50;85.20;;;;;;5094887;28;20173;-75
2021/04/06 11:31:49;;;;;;;6.18;1.55;;;18.60;90.00;;;;;;5109389;28;20641;-75
2021/04/06 11:34:16;;;;;;;2.60;1.42;;;16.40;90.70;;;;;;5105938;28;20247;-75
2021/04/06 11:36:43;;;;;;;5.45;1.30;;;14.20;91.20;;;;;;5091934;28;20261;-75
2021/04/06 11:39:10;;;;;;;6.30;1.40;;;12.80;92.00;;;;;;5092834;28;20169;-75
2021/04/06 11:41:36;;;;;;;6.18;1.42;;;11.90;92.70;;;;;;5094918;28;20526;-74
2021/04/06 11:44:03;;;;;;;4.28;1.40;;;13.10;92.60;;;;;;5096281;28;20654;-75
2021/04/06 11:46:32;;;;;;;5.00;1.33;;;16.00;87.00;;;;;;5109223;28;20265;-75
2021/04/06 11:48:58;;;;;;;7.03;1.25;;;19.00;82.30;;;;;;5115001;28;20184;-75
2021/04/06 11:51:24;;;;;;;5.68;1.23;;;20.50;76.20;;;;;;5115297;28;20200;-74
2021/04/06 11:53:50;;;;;;;5.00;1.20;;;20.10;76.00;;;;;;5116666;28;20530;-74
2021/04/06 11:56:16;;;;;;;2.67;1.42;;;19.70;77.50;;;;;;5115169;28;20716;-74
2021/04/06 11:58:42;;;;;;;6.35;1.55;;;20.80;80.10;;;;;;5094541;28;20174;-74
2021/04/06 12:01:07;;;;;;;4.28;1.50;;;21.00;77.30;;;;;;5097579;28;20246;-76
2021/04/06 12:03:33;;;;;;;4.60;1.00;;;22.40;73.10;;;;;;5101425;28;20181;-76
2021/04/06 12:05:59;;;;;;;5.68;1.52;;;20.70;72.20;;;;;;5094823;28;20173;-75
2021/04/06 12:08:25;;;;;;;2.85;1.00;;;20.30;77.00;;;;;;5109835;28;20575;-75
2021/04/06 12:10:51;;;;;;;3.65;0.85;;;19.10;77.80;;;;;;5097820;28;20185;-75
2021/04/06 12:13:17;;;;;;;3.70;0.95;;;19.80;77.00;;;;;;5116140;28;20546;-75
2021/04/06 12:15:42;;;;;;;3.90;1.25;;;21.10;75.20;;;;;;5116213;28;20169;-75
2021/04/06 12:18:08;;;;;;;2.45;1.17;;;20.30;72.30;;;;;;5115985;28;20591;-75
2021/04/06 12:20:34;;;;;;;4.05;1.52;;;20.60;74.70;;;;;;5116500;28;20157;-76
2021/04/06 12:23:00;;;;;;;9.27;1.40;;;21.50;75.00;;;;;;5116174;28;20165;-75
2021/04/06 12:25:25;;;;;;;4.72;2.00;;;22.00;72.60;;;;;;5116311;28;20169;-75
2021/04/06 12:27:51;;;;;;;4.25;1.45;;;21.60;78.30;;;;;;5115914;28;20601;-76
2021/04/06 12:30:17;;;;;;;3.53;1.73;;;18.00;86.60;;;;;;5115360;28;20238;-75
2021/04/06 12:32:43;;;;;;;5.05;1.92;;;16.20;90.70;;;;;;5116079;28;20723;-76
2021/04/06 12:35:10;;;;;;;6.88;1.98;;;14.60;92.00;;;;;;5116307;28;20182;-75
2021/04/06 12:37:35;;;;;;;6.07;1.60;;;13.50;94.10;;;;;;5115462;28;20211;-75
2021/04/06 12:40:03;;;;;;;9.05;1.80;;;13.10;95.20;;;;;;5115909;28;20177;-75
2021/04/06 12:42:28;;;;;;;5.72;1.83;;;12.60;96.40;;;;;;5114583;28;20177;-75
2021/04/06 12:44:55;;;;;;;4.65;1.38;;;12.20;94.70;;;;;;5115502;28;20158;-74
2021/04/06 12:47:20;;;;;;;9.55;1.27;;;11.40;94.10;;;;;;5115110;28;20177;-75
2021/04/06 12:49:47;;;;;;;7.82;1.65;;;11.10;93.10;;;;;;5114340;28;20165;-73
2021/04/06 12:52:13;;;;;;;5.70;1.23;;;11.00;92.10;;;;;;5097413;28;20207;-73
2021/04/06 12:54:39;;;;;;;2.45;1.10;;;11.30;94.50;;;;;;5113572;28;20258;-75
2021/04/06 12:57:05;;;;;;;3.03;1.25;;;11.40;93.00;;;;;;5114186;28;20166;-74
2021/04/06 12:59:30;;;;;;;13.50;1.40;;;11.40;92.20;;;;;;5115573;28;20184;-75
2021/04/06 13:01:56;;;;;;;6.32;2.00;;;11.00;91.90;;;;;;5113966;28;20177;-74
2021/04/06 13:04:22;;;;;;;5.75;1.70;;;10.00;99.20;;;;;;5114733;28;20186;-75